Time;durP1;ratioP1;P1;durP2;ratioP2;P2;SDS_P1;SDS_P2;PMS_P1;PMS_P2;Temp;Humidity;BMP_temperature;BMP_pressure;BME280_temperature;BME280_humidity;BME280_pressure;Samples;Min_cycle;Max_cycle;Signal;HPM_P1;HPM_P2
2022/04/22 00:01:14;;;;;;;10.17;6.53;;;;;;;-150.27;100.00;61272.81;5231597;28;20052;-69
2022/04/22 00:03:46;;;;;;;7.43;5.70;;;;;;;-150.27;100.00;61272.81;5246241;28;20029;-69
2022/04/22 00:06:17;;;;;;;8.30;5.97;;;;;;;-150.27;100.00;61272.81;5221121;28;20094;-69
2022/04/22 00:08:49;;;;;;;8.77;5.93;;;;;;;-150.27;100.00;61272.81;5233945;28;20044;-69
2022/04/22 00:11:29;;;;;;;7.97;5.90;;;;;;;-150.27;100.00;61272.81;5237927;28;20087;-69
2022/04/22 00:14:03;;;;;;;9.37;6.50;;;;;;;-150.27;100.00;61272.81;5241837;28;20065;-69
2022/04/22 00:16:34;;;;;;;11.80;6.50;;;;;;;-150.27;100.00;61272.81;5243412;28;20135;-69
2022/04/22 00:19:06;;;;;;;7.20;5.87;;;;;;;-150.27;100.00;61272.81;5228343;28;20593;-69
2022/04/22 00:21:41;;;;;;;9.43;6.37;;;;;;;-150.27;100.00;61272.81;5232862;28;20392;-69
2022/04/22 00:24:14;;;;;;;12.60;6.57;;;;;;;-150.27;100.00;61272.81;5248908;28;20874;-69
2022/04/22 00:26:45;;;;;;;11.27;6.13;;;;;;;-150.27;100.00;61272.81;5249232;28;20523;-69
2022/04/22 00:29:17;;;;;;;8.00;6.10;;;;;;;-150.27;100.00;61272.81;5250855;28;20028;-69
2022/04/22 00:31:48;;;;;;;12.43;6.67;;;;;;;-150.27;100.00;61272.81;5248948;28;20108;-71
2022/04/22 00:34:20;;;;;;;9.03;6.07;;;;;;;-150.27;100.00;61272.81;5248520;28;20021;-70
2022/04/22 00:36:51;;;;;;;11.27;7.30;;;;;;;-150.27;100.00;61272.81;5249720;28;20074;-70
2022/04/22 00:39:23;;;;;;;7.43;6.53;;;;;;;-150.27;100.00;61272.81;5250289;28;20025;-70
2022/04/22 00:41:54;;;;;;;12.40;7.20;;;;;;;-150.27;100.00;61272.81;5246972;28;20668;-70
2022/04/22 00:44:26;;;;;;;11.60;6.97;;;;;;;-150.27;100.00;61272.81;5230925;28;20067;-70
2022/04/22 00:46:57;;;;;;;7.40;6.37;;;;;;;-150.27;100.00;61272.81;5249775;28;20096;-70
2022/04/22 00:49:28;;;;;;;12.07;7.70;;;;;;;-150.27;100.00;61272.81;5249444;28;20017;-70
2022/04/22 00:52:02;;;;;;;9.90;7.17;;;;;;;-150.27;100.00;61272.81;5235465;28;20043;-70
2022/04/22 00:54:33;;;;;;;9.10;6.57;;;;;;;-150.27;100.00;61272.81;5228020;28;20120;-70
2022/04/22 00:57:05;;;;;;;7.93;6.43;;;;;;;-150.27;100.00;61272.81;5247647;28;20453;-70
2022/04/22 00:59:37;;;;;;;11.33;7.00;;;;;;;-150.27;100.00;61272.81;5248856;28;20032;-70
2022/04/22 01:10:19;;;;;;;9.13;6.97;;;;;;;-150.27;100.00;61272.81;5227611;28;20546;-70
2022/04/22 01:12:51;;;;;;;10.73;7.17;;;;;;;-150.27;100.00;61272.81;5219641;28;20026;-70
2022/04/22 01:15:23;;;;;;;10.33;7.13;;;;;;;-150.27;100.00;61272.81;5227611;28;20080;-70
2022/04/22 01:17:55;;;;;;;11.03;7.33;;;;;;;-150.27;100.00;61272.81;5231124;28;20091;-70
2022/04/22 01:20:27;;;;;;;8.17;6.83;;;;;;;-150.27;100.00;61272.81;5230804;28;20032;-70
2022/04/22 01:22:58;;;;;;;11.23;7.30;;;;;;;-150.27;100.00;61272.81;5206068;28;20051;-70
2022/04/22 01:25:29;;;;;;;12.63;8.33;;;;;;;-150.27;100.00;61272.81;5231346;28;20553;-70
2022/04/22 01:28:01;;;;;;;10.30;7.70;;;;;;;-150.27;100.00;61272.81;5230864;28;20025;-70
2022/04/22 01:30:33;;;;;;;10.03;7.80;;;;;;;-150.27;100.00;61272.81;5222276;28;20104;-70
2022/04/22 01:33:04;;;;;;;8.80;7.47;;;;;;;-150.27;100.00;61272.81;5228003;28;20887;-70
2022/04/22 01:35:35;;;;;;;9.63;7.03;;;;;;;-150.27;100.00;61272.81;5231244;28;20040;-70
2022/04/22 01:38:06;;;;;;;12.40;7.57;;;;;;;-150.27;100.00;61272.81;5215572;28;20037;-70
2022/04/22 01:40:38;;;;;;;11.90;8.20;;;;;;;-150.27;100.00;61272.81;5195552;28;20064;-70
2022/04/22 01:43:09;;;;;;;10.33;8.17;;;;;;;-150.27;100.00;61272.81;5226846;28;20040;-70
2022/04/22 01:45:40;;;;;;;8.80;7.53;;;;;;;-150.27;100.00;61272.81;5231042;28;20830;-70
2022/04/22 01:48:12;;;;;;;12.40;8.00;;;;;;;-150.27;100.00;61272.81;5228764;28;20033;-70
2022/04/22 01:50:43;;;;;;;10.60;7.60;;;;;;;-150.27;100.00;61272.81;5224409;28;20264;-70
2022/04/22 01:53:14;;;;;;;11.27;8.53;;;;;;;-150.27;100.00;61272.81;5207983;28;20022;-70
2022/04/22 01:55:46;;;;;;;11.33;7.83;;;;;;;-150.27;100.00;61272.81;5230319;28;20040;-70
2022/04/22 01:58:17;;;;;;;11.03;8.43;;;;;;;-150.27;100.00;61272.81;5226858;28;20124;-70
2022/04/22 02:00:48;;;;;;;11.80;8.33;;;;;;;-150.27;100.00;61272.81;5223895;28;20030;-70
2022/04/22 02:03:20;;;;;;;9.93;7.60;;;;;;;-150.27;100.00;61272.81;5207015;28;20132;-70
2022/04/22 02:05:51;;;;;;;11.63;8.47;;;;;;;-150.27;100.00;61272.81;5228238;28;20048;-70
2022/04/22 02:08:22;;;;;;;13.27;8.40;;;;;;;-150.27;100.00;61272.81;5232701;28;20025;-70
2022/04/22 02:10:53;;;;;;;11.83;8.57;;;;;;;-150.27;100.00;61272.81;5226686;28;20029;-70
2022/04/22 02:13:25;;;;;;;14.90;8.77;;;;;;;-150.27;100.00;61272.81;5230279;28;20033;-70
2022/04/22 02:15:56;;;;;;;12.83;8.80;;;;;;;-150.27;100.00;61272.81;5212313;28;20646;-70
2022/04/22 02:18:28;;;;;;;9.50;8.07;;;;;;;-150.27;100.00;61272.81;5230427;28;20404;-70
2022/04/22 02:20:59;;;;;;;10.83;8.43;;;;;;;-150.27;100.00;61272.81;5207196;28;20472;-70
2022/04/22 02:23:31;;;;;;;12.07;8.90;;;;;;;-150.27;100.00;61272.81;5232045;28;20030;-70
2022/04/22 02:26:03;;;;;;;10.83;8.50;;;;;;;-150.27;100.00;61272.81;5231158;28;20068;-70
2022/04/22 02:28:35;;;;;;;10.47;8.87;;;;;;;-150.27;100.00;61272.81;5202807;28;20037;-70
2022/04/22 02:31:11;;;;;;;15.33;9.17;;;;;;;-150.27;100.00;61272.81;5226660;28;20033;-70
2022/04/22 02:33:42;;;;;;;12.53;9.20;;;;;;;-150.27;100.00;61272.81;5211515;28;20026;-70
2022/04/22 02:36:16;;;;;;;10.60;9.00;;;;;;;-150.27;100.00;61272.81;5230473;28;20033;-70
2022/04/22 02:38:47;;;;;;;11.63;8.82;;;;;;;-150.27;100.00;61272.81;5231169;28;20048;-70
2022/04/22 02:46:58;;;;;;;12.33;9.37;;;;;;;-150.27;100.00;61272.81;5214665;28;20416;-70
2022/04/22 02:49:29;;;;;;;13.03;10.07;;;;;;;-150.27;100.00;61272.81;5223933;28;20029;-70
2022/04/22 02:52:01;;;;;;;9.73;8.47;;;;;;;-150.27;100.00;61272.81;5219127;28;20021;-70
2022/04/22 02:54:34;;;;;;;13.83;9.37;;;;;;;-150.27;100.00;61272.81;5224505;28;20049;-70
2022/04/22 02:57:06;;;;;;;12.63;9.60;;;;;;;-150.27;100.00;61272.81;5216154;28;20807;-70
2022/04/22 02:59:39;;;;;;;11.10;9.40;;;;;;;-150.27;100.00;61272.81;5228285;28;20175;-71
2022/04/22 03:02:11;;;;;;;13.73;9.37;;;;;;;-150.27;100.00;61272.81;5218250;28;20108;-70
2022/04/22 03:04:42;;;;;;;11.70;9.77;;;;;;;-150.27;100.00;61272.81;5229945;28;20614;-70
2022/04/22 03:07:14;;;;;;;13.60;10.20;;;;;;;-150.27;100.00;61272.81;5217329;28;20041;-70
2022/04/22 03:09:45;;;;;;;10.43;9.00;;;;;;;-150.27;100.00;61272.81;5225256;28;20483;-70
2022/04/22 03:12:16;;;;;;;12.10;9.67;;;;;;;-150.27;100.00;61272.81;5213197;28;20029;-70
2022/04/22 03:14:48;;;;;;;11.70;9.67;;;;;;;-150.27;100.00;61272.81;5219190;28;20037;-70
2022/04/22 03:17:19;;;;;;;12.17;9.17;;;;;;;-150.27;100.00;61272.81;5191696;28;20048;-70
2022/04/22 03:19:51;;;;;;;13.13;10.27;;;;;;;-150.27;100.00;61272.81;5213963;28;20033;-70
2022/04/22 03:22:22;;;;;;;13.90;10.87;;;;;;;-150.27;100.00;61272.81;5219957;28;20033;-70
2022/04/22 03:24:53;;;;;;;12.33;9.90;;;;;;;-150.27;100.00;61272.81;5229146;28;20532;-70
2022/04/22 03:27:25;;;;;;;14.03;10.70;;;;;;;-150.27;100.00;61272.81;5223851;28;20025;-70
2022/04/22 03:29:56;;;;;;;14.60;10.37;;;;;;;-150.27;100.00;61272.81;5222716;28;20056;-70
2022/04/22 03:32:27;;;;;;;13.10;9.37;;;;;;;-150.27;100.00;61272.81;5206374;28;20033;-70
2022/04/22 03:34:58;;;;;;;13.53;10.70;;;;;;;-150.27;100.00;61272.81;5225639;28;20049;-70
2022/04/22 03:37:30;;;;;;;12.57;10.00;;;;;;;-150.27;100.00;61272.81;5206218;28;20041;-71
2022/04/22 03:40:02;;;;;;;19.57;10.53;;;;;;;-150.27;100.00;61272.81;5210718;28;20037;-70
2022/04/22 03:42:33;;;;;;;12.53;10.10;;;;;;;-150.27;100.00;61272.81;5229457;28;20033;-70
2022/04/22 03:45:05;;;;;;;14.90;9.83;;;;;;;-150.27;100.00;61272.81;5229429;28;20707;-70
2022/04/22 03:47:36;;;;;;;12.43;10.63;;;;;;;-150.27;100.00;61272.81;5230389;28;20038;-70
2022/04/22 03:50:07;;;;;;;13.70;11.57;;;;;;;-150.27;100.00;61272.81;5220211;28;20491;-70
2022/04/22 03:52:39;;;;;;;13.47;11.90;;;;;;;-150.27;100.00;61272.81;5221666;28;20665;-70
2022/04/22 03:55:10;;;;;;;16.73;11.83;;;;;;;-150.27;100.00;61272.81;5226434;28;20442;-70
2022/04/22 04:00:34;;;;;;;16.77;12.83;;;;;;;-150.27;100.00;61272.81;5229220;28;20120;-70
2022/04/22 04:03:07;;;;;;;15.52;12.15;;;;;;;-150.27;100.00;61272.81;5225523;28;20666;-70
2022/04/22 04:05:40;;;;;;;16.13;12.60;;;;;;;-150.27;100.00;61272.81;5228911;28;20703;-70
2022/04/22 04:08:11;;;;;;;14.57;12.47;;;;;;;-150.27;100.00;61272.81;5227273;28;20026;-70
2022/04/22 04:16:23;;;;;;;15.03;12.97;;;;;;;-150.27;100.00;61272.81;5215284;28;20045;-70
2022/04/22 04:23:14;;;;;;;15.23;12.27;;;;;;;-150.27;100.00;61272.81;5210962;28;20373;-70
2022/04/22 04:24:35;;;;;;;13.60;12.00;;;;;;;-150.27;100.00;61272.81;5202408;28;20044;-70
2022/04/22 04:27:07;;;;;;;15.17;12.80;;;;;;;-150.27;100.00;61272.81;5229054;28;20916;-70
2022/04/22 04:29:39;;;;;;;16.10;13.77;;;;;;;-150.27;100.00;61272.81;5209832;28;20033;-70
2022/04/22 04:32:10;;;;;;;19.40;14.10;;;;;;;-150.27;100.00;61272.81;5209327;28;20030;-70
2022/04/22 04:34:41;;;;;;;15.67;13.17;;;;;;;-150.27;100.00;61272.81;5228386;28;20487;-70
2022/04/22 04:37:13;;;;;;;17.10;13.47;;;;;;;-150.27;100.00;61272.81;5227747;28;20078;-70
2022/04/22 04:39:44;;;;;;;17.57;14.07;;;;;;;-150.27;100.00;61272.81;5228023;28;20036;-70
2022/04/22 04:42:16;;;;;;;14.20;12.13;;;;;;;-150.27;100.00;61272.81;5222332;28;20060;-70
2022/04/22 04:44:47;;;;;;;15.60;13.33;;;;;;;-150.27;100.00;61272.81;5197701;28;20025;-70
2022/04/22 04:47:19;;;;;;;17.23;13.77;;;;;;;-150.27;100.00;61272.81;5211227;28;20120;-70
2022/04/22 04:49:50;;;;;;;15.73;13.43;;;;;;;-150.27;100.00;61272.81;5227139;28;20029;-70
2022/04/22 04:52:21;;;;;;;16.80;13.50;;;;;;;-150.27;100.00;61272.81;5228066;28;20072;-70
2022/04/22 04:54:54;;;;;;;19.30;13.90;;;;;;;-150.27;100.00;61272.81;5209907;28;20045;-70
2022/04/22 04:57:25;;;;;;;16.13;14.00;;;;;;;-150.27;100.00;61272.81;5223639;28;20034;-70
2022/04/22 04:59:56;;;;;;;16.03;12.87;;;;;;;-150.27;100.00;61272.81;5209021;28;20554;-70
2022/04/22 05:02:27;;;;;;;16.90;14.27;;;;;;;-150.27;100.00;61272.81;5221220;28;20538;-70
2022/04/22 05:04:59;;;;;;;18.40;14.40;;;;;;;-150.27;100.00;61272.81;5227047;28;20038;-70
2022/04/22 05:07:33;;;;;;;16.50;13.70;;;;;;;-150.27;100.00;61272.81;5227745;28;20111;-70
2022/04/22 05:10:05;;;;;;;19.57;14.70;;;;;;;-150.27;100.00;61272.81;5222612;28;20033;-70
2022/04/22 05:12:37;;;;;;;19.93;13.80;;;;;;;-150.27;100.00;61272.81;5210728;28;20048;-70
2022/04/22 05:15:10;;;;;;;18.57;14.77;;;;;;;-150.27;100.00;61272.81;5218755;28;20037;-70
2022/04/22 05:17:43;;;;;;;19.37;14.40;;;;;;;-150.27;100.00;61272.81;5228732;28;20033;-70
2022/04/22 05:20:16;;;;;;;17.13;14.83;;;;;;;-150.27;100.00;61272.81;5206676;28;20468;-70
2022/04/22 05:22:47;;;;;;;21.43;14.90;;;;;;;-150.27;100.00;61272.81;5226416;28;20027;-70
2022/04/22 05:25:20;;;;;;;17.00;14.60;;;;;;;-150.27;100.00;61272.81;5228283;28;20037;-70
2022/04/22 05:27:52;;;;;;;18.20;14.53;;;;;;;-150.27;100.00;61272.81;5228499;28;20108;-70
2022/04/22 05:33:12;;;;;;;18.13;15.03;;;;;;;-150.27;100.00;61272.81;5226164;28;20061;-70
2022/04/22 05:35:44;;;;;;;17.73;13.87;;;;;;;-150.27;100.00;61272.81;5172157;28;20038;-70
2022/04/22 05:38:17;;;;;;;16.87;14.20;;;;;;;-150.27;100.00;61272.81;5220802;28;20037;-71
2022/04/22 05:40:48;;;;;;;18.43;15.73;;;;;;;-150.27;100.00;61272.81;5223235;28;20108;-71
2022/04/22 05:43:20;;;;;;;17.53;14.63;;;;;;;-150.27;100.00;61272.81;5210487;28;20511;-71
2022/04/22 05:45:51;;;;;;;19.30;15.47;;;;;;;-150.27;100.00;61272.81;5228330;28;20026;-71
2022/04/22 05:48:22;;;;;;;21.13;16.40;;;;;;;-150.27;100.00;61272.81;5227101;28;20121;-71
2022/04/22 05:50:54;;;;;;;20.27;15.97;;;;;;;-150.27;100.00;61272.81;5227364;28;20052;-71
2022/04/22 05:53:25;;;;;;;21.00;16.67;;;;;;;-150.27;100.00;61272.81;5222229;28;20429;-70
2022/04/22 05:55:57;;;;;;;20.00;16.67;;;;;;;-150.27;100.00;61272.81;5203239;28;20048;-69
2022/04/22 05:58:28;;;;;;;20.50;17.57;;;;;;;-150.27;100.00;61272.81;5209074;28;20032;-70
2022/04/22 06:00:59;;;;;;;21.47;17.83;;;;;;;-150.27;100.00;61272.81;5226788;28;20396;-70
2022/04/22 06:03:31;;;;;;;19.23;17.10;;;;;;;-150.27;100.00;61272.81;5226930;28;20101;-71
2022/04/22 06:06:02;;;;;;;20.73;17.87;;;;;;;-150.27;100.00;61272.81;5194465;28;20069;-71
2022/04/22 06:11:24;;;;;;;21.37;17.73;;;;;;;-150.27;100.00;61272.81;5201225;28;20037;-71
2022/04/22 06:13:55;;;;;;;24.43;17.40;;;;;;;-150.27;100.00;61272.81;5203064;28;20386;-71
2022/04/22 06:16:27;;;;;;;21.53;17.73;;;;;;;-150.27;100.00;61272.81;5204978;28;20054;-71
2022/04/22 06:18:58;;;;;;;21.93;18.77;;;;;;;-150.27;100.00;61272.81;5202244;28;20026;-71
2022/04/22 06:21:29;;;;;;;23.23;18.37;;;;;;;-150.27;100.00;61272.81;5202369;28;20864;-69
2022/04/22 06:24:02;;;;;;;22.17;18.33;;;;;;;-150.27;100.00;61272.81;5198096;28;20156;-70
2022/04/22 06:26:33;;;;;;;21.20;18.30;;;;;;;-150.27;100.00;61272.81;5188348;28;20121;-70
2022/04/22 06:29:05;;;;;;;23.70;18.10;;;;;;;-150.27;100.00;61272.81;5205391;28;20488;-70
2022/04/22 06:31:36;;;;;;;20.50;18.20;;;;;;;-150.27;100.00;61272.81;5197292;28;20038;-70
2022/04/22 06:34:08;;;;;;;21.27;18.63;;;;;;;-150.27;100.00;61272.81;5182697;28;20507;-70
2022/04/22 06:36:39;;;;;;;21.43;17.83;;;;;;;-150.27;100.00;61272.81;5205210;28;20051;-69
2022/04/22 06:39:11;;;;;;;22.30;18.20;;;;;;;-150.27;100.00;61272.81;5201560;28;20068;-70
2022/04/22 06:47:23;;;;;;;24.50;19.10;;;;;;;-150.27;100.00;61272.81;5239453;28;20041;-69
2022/04/22 06:49:54;;;;;;;23.23;19.70;;;;;;;-150.27;100.00;61272.81;5209250;28;20026;-69
2022/04/22 06:52:26;;;;;;;21.30;19.00;;;;;;;-150.27;100.00;61272.81;5240580;28;20037;-69
2022/04/22 06:54:57;;;;;;;30.37;19.10;;;;;;;-150.27;100.00;61272.81;5229841;28;20041;-69
2022/04/22 06:57:29;;;;;;;19.97;17.87;;;;;;;-150.27;100.00;61272.81;5240542;28;20124;-69
2022/04/22 07:00:01;;;;;;;20.30;17.63;;;;;;;-150.27;100.00;61272.81;5233484;28;20079;-68
2022/04/22 07:02:33;;;;;;;28.00;18.60;;;;;;;-150.27;100.00;61272.81;5243260;28;20044;-69
2022/04/22 07:05:04;;;;;;;24.30;17.40;;;;;;;-150.27;100.00;61272.81;5231054;28;20033;-69
2022/04/22 07:07:36;;;;;;;25.73;18.23;;;;;;;-150.27;100.00;61272.81;5210115;28;20467;-69
2022/04/22 07:10:07;;;;;;;24.43;17.40;;;;;;;-150.27;100.00;61272.81;5218741;28;20028;-69
2022/04/22 07:12:39;;;;;;;20.27;17.53;;;;;;;-150.27;100.00;61272.81;5240696;28;20033;-69
2022/04/22 07:15:10;;;;;;;22.97;18.10;;;;;;;-150.27;100.00;61272.81;5210363;28;20044;-69
2022/04/22 07:17:42;;;;;;;21.83;17.60;;;;;;;-150.27;100.00;61272.81;5229293;28;20117;-69
2022/04/22 07:20:14;;;;;;;21.60;17.90;;;;;;;-150.27;100.00;61272.81;5239482;28;20154;-69
2022/04/22 07:22:46;;;;;;;18.53;16.70;;;;;;;-150.27;100.00;61272.81;5235997;28;20108;-68
2022/04/22 07:25:18;;;;;;;19.73;17.57;;;;;;;-150.27;100.00;61272.81;5223891;28;20162;-69
2022/04/22 07:27:49;;;;;;;20.77;17.17;;;;;;;-150.27;100.00;61272.81;5235183;28;20147;-68
2022/04/22 07:30:22;;;;;;;25.07;17.67;;;;;;;-150.27;100.00;61272.81;5239625;28;20024;-69
2022/04/22 07:32:54;;;;;;;24.50;17.43;;;;;;;-150.27;100.00;61272.81;5240054;28;20148;-68
2022/04/22 07:35:25;;;;;;;18.07;16.17;;;;;;;-150.27;100.00;61272.81;5220866;28;20041;-70
2022/04/22 07:37:57;;;;;;;17.83;15.97;;;;;;;-150.27;100.00;61272.81;5237877;28;20021;-73
2022/04/22 07:40:28;;;;;;;21.93;16.07;;;;;;;-150.27;100.00;61272.81;5220887;28;20060;-70
2022/04/22 07:48:41;;;;;;;19.10;15.30;;;;;;;-150.27;100.00;61272.81;5235133;28;20036;-71
2022/04/22 07:51:13;;;;;;;15.93;14.33;;;;;;;-150.27;100.00;61272.81;5222550;28;20377;-70
2022/04/22 07:53:44;;;;;;;14.53;13.13;;;;;;;-150.27;100.00;61272.81;5234690;28;20033;-72
2022/04/22 07:56:16;;;;;;;15.93;14.23;;;;;;;-150.27;100.00;61272.81;5231784;28;20365;-72
2022/04/22 07:58:47;;;;;;;17.90;14.57;;;;;;;-150.27;100.00;61272.81;5232293;28;20183;-70
2022/04/22 08:01:18;;;;;;;14.67;13.17;;;;;;;-150.27;100.00;61272.81;5231175;28;20056;-69
2022/04/22 08:03:50;;;;;;;14.77;13.27;;;;;;;-150.27;100.00;61272.81;5220897;28;20046;-70
2022/04/22 08:06:21;;;;;;;16.03;12.87;;;;;;;-150.27;100.00;61272.81;5236985;28;20029;-69
2022/04/22 08:08:52;;;;;;;15.77;12.27;;;;;;;-150.27;100.00;61272.81;5232846;28;20102;-70
2022/04/22 08:11:24;;;;;;;14.13;12.20;;;;;;;-150.27;100.00;61272.81;5234684;28;20022;-70
2022/04/22 08:13:56;;;;;;;14.90;13.30;;;;;;;-150.27;100.00;61272.81;5228858;28;20113;-70
2022/04/22 08:16:27;;;;;;;13.77;12.37;;;;;;;-150.27;100.00;61272.81;5233529;28;20098;-69
2022/04/22 08:18:59;;;;;;;15.00;13.50;;;;;;;-150.27;100.00;61272.81;5207994;28;20591;-72
2022/04/22 08:21:33;;;;;;;14.50;13.00;;;;;;;-150.27;100.00;61272.81;5227234;28;20029;-69
2022/04/22 08:24:06;;;;;;;14.68;13.18;;;;;;;-150.27;100.00;61272.81;5222210;28;20029;-70
2022/04/22 08:26:38;;;;;;;17.40;14.20;;;;;;;-150.27;100.00;61272.81;5227654;28;20025;-70
2022/04/22 08:29:09;;;;;;;16.13;14.53;;;;;;;-150.27;100.00;61272.81;5226949;28;20096;-70
2022/04/22 08:31:41;;;;;;;17.93;13.07;;;;;;;-150.27;100.00;61272.81;5228671;28;20021;-70
2022/04/22 08:34:12;;;;;;;17.60;14.40;;;;;;;-150.27;100.00;61272.81;5193178;28;20057;-71
2022/04/22 08:36:45;;;;;;;15.47;13.60;;;;;;;-150.27;100.00;61272.81;5230539;28;20024;-71
2022/04/22 08:39:17;;;;;;;18.87;14.87;;;;;;;-150.27;100.00;61272.81;5213482;28;20675;-72
2022/04/22 08:41:48;;;;;;;15.60;14.20;;;;;;;-150.27;100.00;61272.81;5210089;28;20037;-70
2022/04/22 08:44:22;;;;;;;17.70;15.77;;;;;;;-150.27;100.00;61272.81;5214581;28;20595;-70
2022/04/22 08:49:58;;;;;;;15.87;14.23;;;;;;;-150.27;100.00;61272.81;5212570;28;20037;-70
2022/04/22 08:52:31;;;;;;;17.03;14.57;;;;;;;-150.27;100.00;61272.81;5211795;28;20051;-71
2022/04/22 08:55:06;;;;;;;15.87;14.37;;;;;;;-150.27;100.00;61272.81;5212042;28;20037;-71
2022/04/22 08:57:37;;;;;;;16.27;13.47;;;;;;;-150.27;100.00;61272.81;5234508;28;20476;-71
2022/04/22 09:00:09;;;;;;;19.17;13.00;;;;;;;-150.27;100.00;61272.81;5229408;28;20032;-71
2022/04/22 09:02:40;;;;;;;14.70;13.20;;;;;;;-150.27;100.00;61272.81;5209600;28;20065;-71
2022/04/22 09:05:13;;;;;;;17.17;12.47;;;;;;;-150.27;100.00;61272.81;5220956;28;20037;-71
2022/04/22 09:07:44;;;;;;;13.73;12.43;;;;;;;-150.27;100.00;61272.81;5236887;28;20030;-71
2022/04/22 09:10:16;;;;;;;14.73;12.97;;;;;;;-150.27;100.00;61272.81;5229032;28;20025;-71
2022/04/22 09:12:54;;;;;;;14.27;12.90;;;;;;;-150.27;100.00;61272.81;5209745;28;20108;-72
2022/04/22 09:15:31;;;;;;;12.97;11.77;;;;;;;-150.27;100.00;61272.81;5220898;28;20770;-72
2022/04/22 09:18:09;;;;;;;12.27;10.90;;;;;;;-150.27;100.00;61272.81;5215172;28;20026;-71
2022/04/22 09:20:41;;;;;;;12.80;11.40;;;;;;;-150.27;100.00;61272.81;5227005;28;20029;-71
2022/04/22 09:23:48;;;;;;;18.93;12.40;;;;;;;-150.27;100.00;61272.81;5227395;28;20026;-71
2022/04/22 09:26:22;;;;;;;13.53;12.13;;;;;;;-150.27;100.00;61272.81;5169139;28;20083;-71
2022/04/22 09:29:01;;;;;;;16.65;11.82;;;;;;;-150.27;100.00;61272.81;5227571;28;20037;-71
2022/04/22 09:31:48;;;;;;;15.67;11.27;;;;;;;-150.27;100.00;61272.81;5227560;28;20033;-72
2022/04/22 09:34:32;;;;;;;12.93;11.63;;;;;;;-150.27;100.00;61272.81;5223842;28;20437;-71
2022/04/22 09:42:59;;;;;;;11.93;10.67;;;;;;;-150.27;100.00;61272.81;5231462;28;20666;-70
2022/04/22 09:45:44;;;;;;;12.57;11.20;;;;;;;-150.27;100.00;61272.81;5202465;28;20029;-71
2022/04/22 09:48:20;;;;;;;12.57;11.27;;;;;;;-150.27;100.00;61272.81;5243699;28;20022;-71
2022/04/22 09:50:54;;;;;;;13.17;11.57;;;;;;;-150.27;100.00;61272.81;5241935;28;20042;-71
2022/04/22 09:53:34;;;;;;;12.30;11.02;;;;;;;-150.27;100.00;61272.81;5230570;28;20112;-71
2022/04/22 09:56:09;;;;;;;12.17;11.00;;;;;;;-150.27;100.00;61272.81;5230056;28;20036;-71
2022/04/22 09:58:41;;;;;;;14.97;10.87;;;;;;;-150.27;100.00;61272.81;5239101;28;20029;-73
2022/04/22 10:01:12;;;;;;;11.43;10.23;;;;;;;-150.27;100.00;61272.81;5240479;28;20519;-72
2022/04/22 10:03:43;;;;;;;11.83;10.20;;;;;;;-150.27;100.00;61272.81;5232077;28;20060;-72
2022/04/22 10:06:15;;;;;;;12.27;9.47;;;;;;;-150.27;100.00;61272.81;5237081;28;20104;-70
2022/04/22 10:08:51;;;;;;;10.10;9.10;;;;;;;-150.27;100.00;61272.81;5196112;28;20049;-71
2022/04/22 10:11:25;;;;;;;10.17;9.17;;;;;;;-150.27;100.00;61272.81;5224468;28;20017;-71
2022/04/22 10:13:57;;;;;;;;;;;;;;;-150.27;100.00;61272.81;5226460;28;20157;-71
2022/04/22 10:16:30;;;;;;;11.40;9.50;;;;;;;-150.27;100.00;61272.81;5239494;28;19999;-70
2022/04/22 10:19:02;;;;;;;13.63;11.17;;;;;;;-150.27;100.00;61272.81;5233136;28;20061;-70
2022/04/22 10:21:34;;;;;;;13.67;11.37;;;;;;;-150.27;100.00;61272.81;5230349;28;20125;-70
2022/04/22 10:24:08;;;;;;;11.40;10.27;;;;;;;-150.27;100.00;61272.81;5222315;28;20125;-70
2022/04/22 10:26:39;;;;;;;11.43;10.23;;;;;;;-150.27;100.00;61272.81;5212692;28;20179;-71
2022/04/22 10:29:12;;;;;;;12.50;10.50;;;;;;;-150.27;100.00;61272.81;5230365;28;20748;-70
2022/04/22 10:31:44;;;;;;;12.33;10.07;;;;;;;-150.27;100.00;61272.81;5229861;28;20048;-71
2022/04/22 10:34:15;;;;;;;15.33;10.23;;;;;;;-150.27;100.00;61272.81;5219623;28;20030;-70
2022/04/22 10:36:55;;;;;;;11.50;10.20;;;;;;;-150.27;100.00;61272.81;5229674;28;20057;-70
2022/04/22 10:39:37;;;;;;;11.60;10.40;;;;;;;-150.27;100.00;61272.81;5236725;28;20381;-71
2022/04/22 10:42:15;;;;;;;13.47;10.90;;;;;;;-150.27;100.00;61272.81;5229808;28;20032;-71
2022/04/22 10:47:47;;;;;;;12.10;10.90;;;;;;;-150.27;100.00;61272.81;5241546;28;20622;-70
2022/04/22 10:50:37;;;;;;;12.83;10.90;;;;;;;-150.27;100.00;61272.81;5241023;28;20025;-73
2022/04/22 10:53:23;;;;;;;13.17;9.73;;;;;;;-150.27;100.00;61272.81;5242369;28;20021;-70
2022/04/22 10:56:26;;;;;;;17.00;10.60;;;;;;;-150.27;100.00;61272.81;5236854;28;20040;-70
2022/04/22 10:59:15;;;;;;;11.13;10.07;;;;;;;-150.27;100.00;61272.81;5210179;28;20029;-70
2022/04/22 11:01:48;;;;;;;10.70;9.60;;;;;;;-150.27;100.00;61272.81;5232855;28;20021;-69
2022/04/22 11:04:26;;;;;;;11.93;10.80;;;;;;;-150.27;100.00;61272.81;5221872;28;20396;-69
2022/04/22 11:06:58;;;;;;;11.97;9.63;;;;;;;-150.27;100.00;61272.81;5223651;28;20054;-69
2022/04/22 11:09:30;;;;;;;12.27;10.97;;;;;;;-150.27;100.00;61272.81;5227332;28;20060;-69
2022/04/22 11:12:01;;;;;;;12.63;10.10;;;;;;;-150.27;100.00;61272.81;5230146;28;20022;-69
2022/04/22 11:14:44;;;;;;;10.63;9.63;;;;;;;-150.27;100.00;61272.81;5208801;28;20550;-69
2022/04/22 11:17:32;;;;;;;12.23;10.03;;;;;;;-150.27;100.00;61272.81;5228405;28;20039;-69
2022/04/22 11:20:05;;;;;;;12.43;10.00;;;;;;;-150.27;100.00;61272.81;5229230;28;20026;-69
2022/04/22 11:22:58;;;;;;;16.27;11.10;;;;;;;-150.27;100.00;61272.81;5229788;28;20038;-69
2022/04/22 11:25:29;;;;;;;12.23;10.00;;;;;;;-150.27;100.00;61272.81;5226530;28;20065;-69
2022/04/22 11:28:02;;;;;;;11.77;10.30;;;;;;;-150.27;100.00;61272.81;5229014;28;20159;-69
2022/04/22 11:30:34;;;;;;;13.53;10.60;;;;;;;-150.27;100.00;61272.81;5211218;28;20041;-69
2022/04/22 11:33:22;;;;;;;13.10;10.63;;;;;;;-150.27;100.00;61272.81;5210248;28;20030;-69
2022/04/22 11:35:57;;;;;;;12.97;11.03;;;;;;;-150.27;100.00;61272.81;5208753;28;20079;-69
2022/04/22 11:38:28;;;;;;;13.27;11.27;;;;;;;-150.27;100.00;61272.81;5224444;28;20068;-69
2022/04/22 11:41:00;;;;;;;11.87;10.40;;;;;;;-150.27;100.00;61272.81;5224396;28;20029;-69
2022/04/22 11:43:31;;;;;;;11.80;10.60;;;;;;;-150.27;100.00;61272.81;5227227;28;20049;-69
2022/04/22 11:46:03;;;;;;;11.53;10.33;;;;;;;-150.27;100.00;61272.81;5210108;28;20087;-69
2022/04/22 11:48:34;;;;;;;12.00;10.83;;;;;;;-150.27;100.00;61272.81;5227986;28;20021;-69
2022/04/22 11:51:05;;;;;;;12.60;10.57;;;;;;;-150.27;100.00;61272.81;5210621;28;20099;-69
2022/04/22 11:53:37;;;;;;;12.97;11.67;;;;;;;-150.27;100.00;61272.81;5225710;28;20025;-69
2022/04/22 11:56:08;;;;;;;11.43;10.23;;;;;;;-150.27;100.00;61272.81;5229206;28;20025;-68
2022/04/22 11:58:40;;;;;;;12.87;11.33;;;;;;;-150.27;100.00;61272.81;5210092;28;20022;-69
2022/04/22 12:06:51;;;;;;;13.20;11.00;;;;;;;-150.27;100.00;61272.81;5224887;28;20025;-69
2022/04/22 12:09:22;;;;;;;15.70;10.60;;;;;;;-150.27;100.00;61272.81;5226127;28;20377;-67
2022/04/22 12:11:57;;;;;;;18.40;11.00;;;;;;;-150.27;100.00;61272.81;5227979;28;20032;-68
2022/04/22 12:14:30;;;;;;;13.30;10.87;;;;;;;-150.27;100.00;61272.81;5207725;28;20551;-68
2022/04/22 12:17:03;;;;;;;16.00;11.03;;;;;;;-150.27;100.00;61272.81;5241037;28;20021;-69
2022/04/22 12:19:35;;;;;;;14.57;10.70;;;;;;;-150.27;100.00;61272.81;5240222;28;20499;-69
2022/04/22 12:22:06;;;;;;;15.73;10.80;;;;;;;-150.27;100.00;61272.81;5241717;28;20126;-69